createdAt,value
2017-04-06T00:00:11.548Z,8
2017-04-06T00:01:33.377Z,8.04
2017-04-06T00:02:55.184Z,8.01
2017-04-06T00:04:17.398Z,7.97
2017-04-06T00:05:39.846Z,7.98
2017-04-06T00:07:01.357Z,8.05
2017-04-06T00:08:23.498Z,8.01
2017-04-06T00:09:45.370Z,7.92
2017-04-06T00:11:07.503Z,7.92
2017-04-06T00:12:29.674Z,7.87
2017-04-06T00:13:51.486Z,7.8
2017-04-06T00:15:13.875Z,7.8
2017-04-06T00:16:35.687Z,7.87
2017-04-06T00:17:58.227Z,7.86
2017-04-06T00:19:20.045Z,7.95
2017-04-06T00:20:43.455Z,7.9
2017-04-06T00:22:05.677Z,7.9
2017-04-06T00:23:27.926Z,7.87
2017-04-06T00:24:49.757Z,7.93
2017-04-06T00:26:11.567Z,7.9
2017-04-06T00:27:33.372Z,7.9
2017-04-06T00:28:55.501Z,7.83
2017-04-06T00:30:17.635Z,7.93
2017-04-06T00:31:39.443Z,7.83
2017-04-06T00:33:00.957Z,7.89
2017-04-06T00:34:23.096Z,7.85
2017-04-06T00:35:44.597Z,7.86
2017-04-06T00:37:07.117Z,7.93
2017-04-06T00:38:28.938Z,7.79
2017-04-06T00:39:51.387Z,7.83
2017-04-06T00:41:13.199Z,7.68
2017-04-06T00:42:35.927Z,7.69
2017-04-06T00:43:58.120Z,7.71
2017-04-06T00:45:20.379Z,7.69
2017-04-06T00:46:41.882Z,7.67
2017-04-06T00:48:03.636Z,7.64
2017-04-06T00:49:24.814Z,7.67
2017-04-06T00:50:47.043Z,7.79
2017-04-06T00:52:08.961Z,7.69
2017-04-06T00:53:31.087Z,7.74
2017-04-06T00:54:53.226Z,7.71
2017-04-06T00:56:15.087Z,7.71
2017-04-06T00:57:36.982Z,7.63
2017-04-06T00:58:59.240Z,7.64
2017-04-06T01:00:21.182Z,7.71
2017-04-06T01:01:43.107Z,7.71
2017-04-06T01:03:04.936Z,7.71
2017-04-06T01:04:27.652Z,7.83
2017-04-06T01:05:50.140Z,7.68
2017-04-06T01:07:12.581Z,7.68
2017-04-06T01:08:34.072Z,7.72
2017-04-06T01:09:55.885Z,7.68
2017-04-06T01:11:17.400Z,7.6
2017-04-06T01:12:38.946Z,7.71
2017-04-06T01:14:01.086Z,7.69
2017-04-06T01:15:23.167Z,7.71
2017-04-06T01:16:45.022Z,7.71
2017-04-06T01:18:06.515Z,7.74
2017-04-06T01:19:28.332Z,7.77
2017-04-06T01:20:50.417Z,7.57
2017-04-06T01:22:11.925Z,7.64
2017-04-06T01:23:34.069Z,7.68
2017-04-06T01:24:56.533Z,7.68
2017-04-06T01:26:18.359Z,7.61
2017-04-06T01:27:40.188Z,7.63
2017-04-06T01:29:02.628Z,7.63
2017-04-06T01:30:24.884Z,7.64
2017-04-06T01:31:47.374Z,7.68
2017-04-06T01:33:08.892Z,7.58
2017-04-06T01:34:30.715Z,7.64
2017-04-06T01:35:52.629Z,7.57
2017-04-06T01:37:15.417Z,7.63
2017-04-06T01:38:37.862Z,7.64
2017-04-06T01:39:59.996Z,7.57
2017-04-06T01:41:22.436Z,7.57
2017-04-06T01:42:44.531Z,7.57
2017-04-06T01:44:06.034Z,7.53
2017-04-06T01:45:27.852Z,7.55
2017-04-06T01:46:49.740Z,7.61
2017-04-06T01:48:12.226Z,7.57
2017-04-06T01:49:34.356Z,7.63
2017-04-06T01:50:56.184Z,7.49
2017-04-06T01:52:18.464Z,7.49
2017-04-06T01:53:40.897Z,7.48
2017-04-06T01:55:02.806Z,7.52
2017-04-06T01:56:24.924Z,7.5
2017-04-06T01:57:46.729Z,7.58
2017-04-06T01:59:09.108Z,7.6
2017-04-06T02:00:30.603Z,7.6
2017-04-06T02:01:52.417Z,7.61
2017-04-06T02:03:14.255Z,7.55
2017-04-06T02:04:36.038Z,7.52
2017-04-06T02:05:57.217Z,7.53
2017-04-06T02:07:19.671Z,7.61
2017-04-06T02:08:41.464Z,7.53
2017-04-06T02:10:03.627Z,7.45
2017-04-06T02:11:25.866Z,7.57
2017-04-06T02:12:47.829Z,7.48
2017-04-06T02:14:10.305Z,7.52
2017-04-06T02:15:32.755Z,7.5
2017-04-06T02:16:54.879Z,7.48
2017-04-06T02:18:17.034Z,7.58
2017-04-06T02:19:38.228Z,7.5
2017-04-06T02:20:59.725Z,7.53
2017-04-06T02:22:22.015Z,7.49
2017-04-06T02:23:44.577Z,7.46
2017-04-06T02:25:06.203Z,7.49
2017-04-06T02:26:29.017Z,7.45
2017-04-06T02:27:50.853Z,7.43
2017-04-06T02:29:13.075Z,7.31
2017-04-06T02:30:34.596Z,7.31
2017-04-06T02:31:56.403Z,7.24
2017-04-06T02:33:18.543Z,7.28
2017-04-06T02:34:40.356Z,7.34
2017-04-06T02:36:02.817Z,7.35
2017-04-06T02:37:25.046Z,7.37
2017-04-06T02:38:47.615Z,7.4
2017-04-06T02:40:09.833Z,7.4
2017-04-06T02:41:31.684Z,7.48
2017-04-06T02:42:55.308Z,7.42
2017-04-06T02:44:17.456Z,7.4
2017-04-06T02:45:39.257Z,7.39
2017-04-06T02:47:01.721Z,7.35
2017-04-06T02:48:23.796Z,7.39
2017-04-06T02:49:45.626Z,7.34
2017-04-06T02:51:07.456Z,7.34
2017-04-06T02:52:29.277Z,7.3
2017-04-06T02:53:52.055Z,7.39
2017-04-06T02:55:14.191Z,7.31
2017-04-06T02:56:36.319Z,7.3
2017-04-06T02:57:57.216Z,7.3
2017-04-06T02:59:19.783Z,7.27
2017-04-06T03:00:41.352Z,7.25
2017-04-06T03:02:03.326Z,7.28
2017-04-06T03:03:25.786Z,7.31
2017-04-06T03:04:48.573Z,7.21
2017-04-06T03:06:11.022Z,7.3
2017-04-06T03:07:32.234Z,7.35
2017-04-06T03:08:54.668Z,7.27
2017-04-06T03:10:17.138Z,7.25
2017-04-06T03:11:39.651Z,7.23
2017-04-06T03:13:01.150Z,7.28
2017-04-06T03:14:23.257Z,7.3
2017-04-06T03:15:45.439Z,7.31
2017-04-06T03:17:07.395Z,7.31
2017-04-06T03:18:29.315Z,7.31
2017-04-06T03:19:51.456Z,7.28
2017-04-06T03:21:13.874Z,7.31
2017-04-06T03:22:35.800Z,7.31
2017-04-06T03:23:57.311Z,7.34
2017-04-06T03:25:20.557Z,7.4
2017-04-06T03:26:42.355Z,7.39
2017-04-06T03:28:04.492Z,7.31
2017-04-06T03:29:25.976Z,7.28
2017-04-06T03:30:47.804Z,7.35
2017-04-06T03:32:10.289Z,7.39
2017-04-06T03:33:32.395Z,7.42
2017-04-06T03:34:54.541Z,7.35
2017-04-06T03:36:16.404Z,7.39
2017-04-06T03:37:38.883Z,7.3
2017-04-06T03:39:01.006Z,7.35
2017-04-06T03:40:22.505Z,7.35
2017-04-06T03:41:44.314Z,7.42
2017-04-06T03:43:06.797Z,7.39
2017-04-06T03:44:28.607Z,7.34
2017-04-06T03:45:50.821Z,7.32
2017-04-06T03:47:12.346Z,7.39
2017-04-06T03:48:34.786Z,7.35
2017-04-06T03:49:56.295Z,7.37
2017-04-06T03:51:18.426Z,7.34
2017-04-06T03:52:40.234Z,7.35
2017-04-06T03:54:02.677Z,7.45
2017-04-06T03:55:24.786Z,7.31
2017-04-06T03:56:46.931Z,7.39
2017-04-06T03:58:08.759Z,7.42
2017-04-06T03:59:30.184Z,7.37
2017-04-06T04:00:51.675Z,7.46
2017-04-06T04:02:13.168Z,7.45
2017-04-06T04:03:34.360Z,7.45
2017-04-06T04:04:56.652Z,7.48
2017-04-06T04:06:18.804Z,7.4
2017-04-06T04:07:40.624Z,7.4
2017-04-06T04:09:02.446Z,7.42
2017-04-06T04:10:24.214Z,7.45
2017-04-06T04:11:49.658Z,7.43
2017-04-06T04:15:37.154Z,7.42
2017-04-06T04:16:59.553Z,7.49
2017-04-06T04:18:21.053Z,7.45
2017-04-06T04:19:43.190Z,7.48
2017-04-06T04:21:05.372Z,7.49
2017-04-06T04:22:26.874Z,7.49
2017-04-06T04:23:48.057Z,7.48
2017-04-06T04:25:10.493Z,7.48
2017-04-06T04:30:29.365Z,7.5
2017-04-06T04:31:51.864Z,7.48
2017-04-06T04:33:14.089Z,7.46
2017-04-06T04:34:44.406Z,7.53
2017-04-06T04:36:31.108Z,7.46
2017-04-06T04:37:53.636Z,7.57
2017-04-06T04:39:15.791Z,7.46
2017-04-06T04:40:36.998Z,7.5
2017-04-06T04:41:59.764Z,7.48
2017-04-06T04:43:22.371Z,7.45
2017-04-06T04:44:44.599Z,7.5
2017-04-06T04:46:06.437Z,7.46
2017-04-06T04:47:28.856Z,7.5
2017-04-06T04:48:51.023Z,7.52
2017-04-06T04:50:13.267Z,7.49
2017-04-06T04:51:35.423Z,7.48
2017-04-06T04:52:57.510Z,7.52
2017-04-06T04:54:19.358Z,7.43
2017-04-06T04:55:41.966Z,7.46
2017-04-06T04:57:03.884Z,7.43
2017-04-06T04:58:25.946Z,7.4
2017-04-06T04:59:48.081Z,7.39
2017-04-06T05:01:09.590Z,7.4
2017-04-06T05:02:31.716Z,7.37
2017-04-06T05:03:54.097Z,7.34
2017-04-06T05:05:16.537Z,7.32
2017-04-06T05:06:38.368Z,7.43
2017-04-06T05:08:00.530Z,7.43
2017-04-06T05:09:22.808Z,7.5
2017-04-06T05:10:44.656Z,7.52
2017-04-06T05:12:06.147Z,7.5
2017-04-06T05:13:27.984Z,7.53
2017-04-06T05:14:50.379Z,7.49
2017-04-06T05:16:12.587Z,7.6
2017-04-06T05:17:34.435Z,7.63
2017-04-06T05:18:56.735Z,7.64
2017-04-06T05:20:19.218Z,7.68
2017-04-06T05:21:41.377Z,7.72
2017-04-06T05:23:03.207Z,7.74
2017-04-06T05:24:25.340Z,7.86
2017-04-06T05:25:47.587Z,7.83
2017-04-06T05:27:09.338Z,7.9
2017-04-06T05:28:30.896Z,7.95
2017-04-06T05:29:52.424Z,7.98
2017-04-06T05:31:14.513Z,7.93
2017-04-06T05:32:36.983Z,7.97
2017-04-06T05:33:58.797Z,7.97
2017-04-06T05:35:21.031Z,8.07
2017-04-06T05:36:42.819Z,8.23
2017-04-06T05:38:04.636Z,8.2
2017-04-06T05:39:27.099Z,8.16
2017-04-06T05:40:49.270Z,8.2
2017-04-06T05:42:10.779Z,8.3
2017-04-06T05:43:33.254Z,8.47
2017-04-06T05:44:55.082Z,8.65
2017-04-06T05:46:16.910Z,8.74
2017-04-06T05:47:39.311Z,8.79
2017-04-06T05:49:00.822Z,8.86
2017-04-06T05:50:22.970Z,9.13
2017-04-06T05:51:44.799Z,9.18
2017-04-06T05:53:07.220Z,9.17
2017-04-06T05:54:28.748Z,9.11
2017-04-06T05:55:50.933Z,9.1
2017-04-06T05:57:13.734Z,9.01
2017-04-06T05:58:35.802Z,8.96
2017-04-06T05:59:57.950Z,9.01
2017-04-06T06:01:19.486Z,8.91
2017-04-06T06:02:41.978Z,9.1
2017-04-06T06:04:04.382Z,9.26
2017-04-06T06:05:26.507Z,9.58
2017-04-06T06:06:48.012Z,9.72
2017-04-06T06:08:10.213Z,10.18
2017-04-06T06:09:32.660Z,10.11
2017-04-06T06:10:55.137Z,10.25
2017-04-06T06:12:17.583Z,10.18
2017-04-06T06:13:39.421Z,10.15
2017-04-06T06:15:02.149Z,10.2
2017-04-06T06:16:24.047Z,10.22
2017-04-06T06:17:46.199Z,10.32
2017-04-06T06:19:07.717Z,10.3
2017-04-06T06:20:29.530Z,10.48
2017-04-06T06:21:51.695Z,10.63
2017-04-06T06:23:13.866Z,10.59
2017-04-06T06:24:36.315Z,10.47
2017-04-06T06:25:58.540Z,10.48
2017-04-06T06:27:20.434Z,10.48
2017-04-06T06:28:41.957Z,10.68
2017-04-06T06:30:04.556Z,11.37
2017-04-06T06:31:27.005Z,11.25
2017-04-06T06:32:48.501Z,10.86
2017-04-06T06:34:10.967Z,10.64
2017-04-06T06:35:32.912Z,10.55
2017-04-06T06:36:55.295Z,11.61
2017-04-06T06:38:17.034Z,12.95
2017-04-06T06:39:38.829Z,14.36
2017-04-06T06:41:00.639Z,15.11
2017-04-06T06:42:22.785Z,15.51
2017-04-06T06:43:44.297Z,15.32
2017-04-06T06:45:05.537Z,14.69
2017-04-06T06:46:27.891Z,14.47
2017-04-06T06:47:51.734Z,14.03
2017-04-06T06:49:13.337Z,14.33
2017-04-06T06:50:34.227Z,14.58
2017-04-06T06:51:56.099Z,15.01
2017-04-06T06:53:18.185Z,15.32
2017-04-06T06:54:39.694Z,16.02
2017-04-06T06:56:01.833Z,16.42
2017-04-06T06:57:23.688Z,16.71
2017-04-06T06:58:46.077Z,15.97
2017-04-06T07:00:07.916Z,15.46
2017-04-06T07:01:29.233Z,15.8
2017-04-06T07:02:51.735Z,15.39
2017-04-06T07:04:14.216Z,14.92
2017-04-06T07:05:36.738Z,14.7
2017-04-06T07:06:59.217Z,14.77
2017-04-06T07:08:20.872Z,15.76
2017-04-06T07:09:43.274Z,16.56
2017-04-06T07:11:05.425Z,15.89
2017-04-06T07:12:27.587Z,14.54
2017-04-06T07:13:49.731Z,13.75
2017-04-06T07:15:12.207Z,13.05
2017-04-06T07:16:34.557Z,12.85
2017-04-06T07:17:56.725Z,12.34
2017-04-06T07:19:18.246Z,12.14
2017-04-06T07:20:40.413Z,11.98
2017-04-06T07:22:01.939Z,12.23
2017-04-06T07:23:24.476Z,12.23
2017-04-06T07:24:46.627Z,12.01
2017-04-06T07:26:09.048Z,11.9
2017-04-06T07:27:31.170Z,11.88
2017-04-06T07:28:52.688Z,12.14
2017-04-06T07:30:14.199Z,12.35
2017-04-06T07:31:36.218Z,12.35
2017-04-06T07:32:58.053Z,12.56
2017-04-06T07:34:20.272Z,12.46
2017-04-06T07:35:42.104Z,12.19
2017-04-06T07:37:04.535Z,11.76
2017-04-06T07:38:27.035Z,11.62
2017-04-06T07:39:49.165Z,11.33
2017-04-06T07:41:10.654Z,10.99
2017-04-06T07:42:32.535Z,10.81
2017-04-06T07:43:54.377Z,10.88
2017-04-06T07:45:16.192Z,11.64
2017-04-06T07:46:38.023Z,11.95
2017-04-06T07:48:00.187Z,11.76
2017-04-06T07:49:22.191Z,11.57
2017-04-06T07:50:44.186Z,11.75
2017-04-06T07:52:06.662Z,11.67
2017-04-06T07:53:29.076Z,11.51
2017-04-06T07:54:51.229Z,11.54
2017-04-06T07:56:13.371Z,11.67
2017-04-06T07:57:34.925Z,11.72
2017-04-06T07:58:56.905Z,12.28
2017-04-06T08:00:18.764Z,11.94
2017-04-06T08:01:40.600Z,11.82
2017-04-06T08:03:01.785Z,11.85
2017-04-06T08:04:24.534Z,11.69
2017-04-06T08:05:46.102Z,11.65
2017-04-06T08:07:08.256Z,11.29
2017-04-06T08:08:30.115Z,11.32
2017-04-06T08:09:52.267Z,11.07
2017-04-06T08:11:13.785Z,11.28
2017-04-06T08:12:35.614Z,11.51
2017-04-06T08:13:57.494Z,11.69
2017-04-06T08:15:19.902Z,11.75
2017-04-06T08:16:42.065Z,12.12
2017-04-06T08:18:36.536Z,12.12
2017-04-06T08:19:58.120Z,12.12
2017-04-06T08:21:20.966Z,11.95
2017-04-06T08:22:42.877Z,11.85
2017-04-06T08:24:05.010Z,11.7
2017-04-06T08:25:27.460Z,11.99
2017-04-06T08:26:49.885Z,12.41
2017-04-06T08:28:12.036Z,12.31
2017-04-06T08:29:34.186Z,12.2
2017-04-06T08:30:56.005Z,12.16
2017-04-06T08:32:17.494Z,11.88
2017-04-06T08:33:39.002Z,11.72
2017-04-06T08:35:01.136Z,12.01
2017-04-06T08:36:23.268Z,12.27
2017-04-06T08:37:45.545Z,12.67
2017-04-06T08:39:07.809Z,12.65
2017-04-06T08:40:29.965Z,12.82
2017-04-06T08:41:51.451Z,12.85
2017-04-06T08:43:13.656Z,12.02
2017-04-06T08:44:35.920Z,12.09
2017-04-06T08:45:57.869Z,12.05
2017-04-06T08:47:19.716Z,12.24
2017-04-06T08:48:41.845Z,12.39
2017-04-06T08:50:04.309Z,12.64
2017-04-06T08:51:26.214Z,12.59
2017-04-06T08:52:47.814Z,12.79
2017-04-06T08:54:10.214Z,12.14
2017-04-06T08:55:32.165Z,11.79
2017-04-06T08:56:54.637Z,11.52
2017-04-06T08:58:16.805Z,11.36
2017-04-06T08:59:38.625Z,11.61
2017-04-06T09:01:00.775Z,11.99
2017-04-06T09:02:22.905Z,12.31
2017-04-06T09:03:44.757Z,12.28
2017-04-06T09:05:07.536Z,11.86
2017-04-06T09:06:30.016Z,12.07
2017-04-06T09:07:51.845Z,11.7
2017-04-06T09:09:13.380Z,12.05
2017-04-06T09:10:35.267Z,12.1
2017-04-06T09:11:57.199Z,12.23
2017-04-06T09:13:18.396Z,11.76
2017-04-06T09:14:40.744Z,11.55
2017-04-06T09:16:03.264Z,11.64
2017-04-06T09:17:24.793Z,12.02
2017-04-06T09:18:46.707Z,12.12
2017-04-06T09:20:08.831Z,12.14
2017-04-06T09:21:30.668Z,12.14
2017-04-06T09:22:52.243Z,12.07
2017-04-06T09:24:14.220Z,11.9
2017-04-06T09:25:36.652Z,12.14
2017-04-06T09:26:59.065Z,12.14
2017-04-06T09:28:20.915Z,11.98
2017-04-06T09:29:43.046Z,12.24
2017-04-06T09:31:05.545Z,12.24
2017-04-06T09:32:27.675Z,12.39
2017-04-06T09:33:49.485Z,11.96
2017-04-06T09:35:11.059Z,11.76
2017-04-06T09:36:33.218Z,12.12
2017-04-06T09:37:55.698Z,12.41
2017-04-06T09:39:18.175Z,12.31
2017-04-06T09:40:40.022Z,12.53
2017-04-06T09:42:02.240Z,12.27
2017-04-06T09:43:24.808Z,12.59
2017-04-06T09:44:46.323Z,12.65
2017-04-06T09:46:08.677Z,12.39
2017-04-06T09:47:30.190Z,12.5
2017-04-06T09:48:53.006Z,12.59
2017-04-06T09:50:15.151Z,12.02
2017-04-06T09:51:36.665Z,12.16
2017-04-06T09:52:58.169Z,12.31
2017-04-06T09:54:20.635Z,12.53
2017-04-06T09:55:42.495Z,12.64
2017-04-06T09:57:04.945Z,12.38
2017-04-06T09:58:26.772Z,12.37
2017-04-06T09:59:49.007Z,12.29
2017-04-06T10:01:11.027Z,12.28
2017-04-06T10:02:33.538Z,12.49
2017-04-06T10:03:55.410Z,11.73
2017-04-06T10:05:17.875Z,12.07
2017-04-06T10:06:40.420Z,12.29
2017-04-06T10:08:02.886Z,12.56
2017-04-06T10:09:25.046Z,12.68
2017-04-06T10:10:47.146Z,12.7
2017-04-06T10:12:09.388Z,12.59
2017-04-06T10:13:30.916Z,12.52
2017-04-06T10:14:52.763Z,12.14
2017-04-06T10:16:14.708Z,12.28
2017-04-06T10:17:36.630Z,12.39
2017-04-06T10:18:58.492Z,12.59
2017-04-06T10:20:20.765Z,12.52
2017-04-06T10:21:43.054Z,12.59
2017-04-06T10:23:05.557Z,12.59
2017-04-06T10:24:27.723Z,13.08
2017-04-06T10:25:49.853Z,12.85
2017-04-06T10:27:12.326Z,12.77
2017-04-06T10:28:34.520Z,13.04
2017-04-06T10:29:56.656Z,13.05
2017-04-06T10:31:18.838Z,13.25
2017-04-06T10:32:41.316Z,13.38
2017-04-06T10:34:03.640Z,13.32
2017-04-06T10:35:25.505Z,13.51
2017-04-06T10:36:47.346Z,13.42
2017-04-06T10:38:09.436Z,13.57
2017-04-06T10:39:31.580Z,13.44
2017-04-06T10:40:53.416Z,13.29
2017-04-06T10:42:15.242Z,13.11
2017-04-06T10:43:37.686Z,12.77
2017-04-06T10:44:59.514Z,12.74
2017-04-06T10:46:20.694Z,12.72
2017-04-06T10:47:42.545Z,13.05
2017-04-06T10:49:05.315Z,13.05
2017-04-06T10:50:27.136Z,12.93
2017-04-06T10:51:49.693Z,12.97
2017-04-06T10:53:11.817Z,13.22
2017-04-06T10:54:33.917Z,13.23
2017-04-06T10:55:55.726Z,13.23
2017-04-06T10:57:17.293Z,13.19
2017-04-06T10:58:39.448Z,13.45
2017-04-06T11:00:01.897Z,13.38
2017-04-06T11:01:23.416Z,13.15
2017-04-06T11:02:45.547Z,13.08
2017-04-06T11:04:07.057Z,12.93
2017-04-06T11:05:29.233Z,12.5
2017-04-06T11:06:51.418Z,12.89
2017-04-06T11:08:13.562Z,12.86
2017-04-06T11:09:35.530Z,13.45
2017-04-06T11:10:57.082Z,13.69
2017-04-06T11:12:18.584Z,13.46
2017-04-06T11:13:40.750Z,13.32
2017-04-06T11:15:02.283Z,12.57
2017-04-06T11:16:24.817Z,12.29
2017-04-06T11:17:47.259Z,12.72
2017-04-06T11:19:09.096Z,13.15
2017-04-06T11:20:31.756Z,13.1
2017-04-06T11:21:54.156Z,13.14
2017-04-06T11:23:15.989Z,13.22
2017-04-06T11:24:38.479Z,13.52
2017-04-06T11:26:00.963Z,13.49
2017-04-06T11:27:23.466Z,13.57
2017-04-06T11:28:45.935Z,13.66
2017-04-06T11:30:07.786Z,13.73
2017-04-06T11:31:29.925Z,13.12
2017-04-06T11:32:52.846Z,12.86
2017-04-06T11:34:15.307Z,12.53
2017-04-06T11:35:37.941Z,13.07
2017-04-06T11:37:00.105Z,13.59
2017-04-06T11:38:22.836Z,13.52
2017-04-06T11:39:45.433Z,13.17
2017-04-06T11:41:07.582Z,12.97
2017-04-06T11:42:29.267Z,12.79
2017-04-06T11:43:51.725Z,13.07
2017-04-06T11:45:13.259Z,13.41
2017-04-06T11:46:35.085Z,13.32
2017-04-06T11:47:56.966Z,13.38
2017-04-06T11:49:19.635Z,13.66
2017-04-06T11:50:41.561Z,13.44
2017-04-06T11:52:03.391Z,13.05
2017-04-06T11:53:24.913Z,13.19
2017-04-06T11:54:47.386Z,13.41
2017-04-06T11:56:08.917Z,13.63
2017-04-06T11:57:30.778Z,13.51
2017-04-06T11:58:53.293Z,13.38
2017-04-06T12:00:15.375Z,13.15
2017-04-06T12:01:37.525Z,12.92
2017-04-06T12:03:00.124Z,13.11
2017-04-06T12:04:22.291Z,13.36
2017-04-06T12:05:44.737Z,13.29
2017-04-06T12:07:07.207Z,13.08
2017-04-06T12:08:29.348Z,12.86
2017-04-06T12:09:50.867Z,12.7
2017-04-06T12:11:13.319Z,12.96
2017-04-06T12:12:34.809Z,13.05
2017-04-06T12:13:57.213Z,12.41
2017-04-06T12:15:19.068Z,12.96
2017-04-06T12:16:41.867Z,12.93
2017-04-06T12:18:04.007Z,12.71
2017-04-06T12:19:26.546Z,12.87
2017-04-06T12:20:48.376Z,13.03
2017-04-06T12:22:10.504Z,12.9
2017-04-06T12:23:32.984Z,13.28
2017-04-06T12:24:55.462Z,12.9
2017-04-06T12:26:16.965Z,12.57
2017-04-06T12:27:39.137Z,12.41
2017-04-06T12:29:01.644Z,12.12
2017-04-06T12:30:55.856Z,12.35
2017-04-06T12:32:17.705Z,12.28
2017-04-06T12:33:39.817Z,12.52
2017-04-06T12:35:01.970Z,12.72
2017-04-06T12:36:23.877Z,12.97
2017-04-06T12:37:46.281Z,13.45
2017-04-06T12:39:08.515Z,13.95
2017-04-06T12:40:30.686Z,14.18
2017-04-06T12:41:52.835Z,14.17
2017-04-06T12:43:15.386Z,14.27
2017-04-06T12:44:37.867Z,14.2
2017-04-06T12:46:00.316Z,13.96
2017-04-06T12:47:22.160Z,13.84
2017-04-06T12:48:43.936Z,13.48
2017-04-06T12:50:06.152Z,13.26
2017-04-06T12:51:28.002Z,13.41
2017-04-06T12:52:50.445Z,13.57
2017-04-06T12:54:12.698Z,13.6
2017-04-06T12:55:34.945Z,13.77
2017-04-06T12:56:57.121Z,13.81
2017-04-06T12:58:19.255Z,13.99
2017-04-06T12:59:42.003Z,14.25
2017-04-06T13:01:04.216Z,14.24
2017-04-06T13:02:26.098Z,14.22
2017-04-06T13:03:48.339Z,14.22
2017-04-06T13:05:12.745Z,14.27
2017-04-06T13:07:06.909Z,13.64
2017-04-06T13:08:29.076Z,13.42
2017-04-06T13:09:50.895Z,13.12
2017-04-06T13:11:13.608Z,12.93
2017-04-06T13:12:35.438Z,13.05
2017-04-06T13:13:57.918Z,13.17
2017-04-06T13:15:20.410Z,13.25
2017-04-06T13:16:42.244Z,13.38
2017-04-06T13:18:04.385Z,13.46
2017-04-06T13:19:25.895Z,13.45
2017-04-06T13:20:47.663Z,13.73
2017-04-06T13:22:09.804Z,13.45
2017-04-06T13:23:32.286Z,13.07
2017-04-06T13:24:54.445Z,12.78
2017-04-06T13:26:16.628Z,12.52
2017-04-06T13:27:38.783Z,12.5
2017-04-06T13:29:01.245Z,12.75
2017-04-06T13:30:23.406Z,12.92
2017-04-06T13:31:45.168Z,12.93
2017-04-06T13:33:07.024Z,12.85
2017-04-06T13:34:29.207Z,12.93
2017-04-06T13:35:51.414Z,13.03
2017-04-06T13:37:14.118Z,12.85
2017-04-06T13:38:35.967Z,12.96
2017-04-06T13:39:58.177Z,13.22
2017-04-06T13:41:20.354Z,13.14
2017-04-06T13:42:42.492Z,13.38
2017-04-06T13:44:04.990Z,13.48
2017-04-06T13:45:27.006Z,13.63
2017-04-06T13:46:48.845Z,13.54
2017-04-06T13:48:11.554Z,13.78
2017-04-06T13:49:33.409Z,13.77
2017-04-06T13:50:55.853Z,13.78
2017-04-06T13:52:17.701Z,13.75
2017-04-06T13:53:40.421Z,13.49
2017-04-06T13:55:02.578Z,13.54
2017-04-06T13:56:24.755Z,13.45
2017-04-06T13:57:46.986Z,13.59
2017-04-06T13:59:09.385Z,13.63
2017-04-06T14:00:30.949Z,13.91
2017-04-06T14:01:53.106Z,13.54
2017-04-06T14:03:15.295Z,14.07
2017-04-06T14:04:37.076Z,14.22
2017-04-06T14:05:59.221Z,14.21
2017-04-06T14:07:21.824Z,13.88
2017-04-06T14:08:43.671Z,13.59
2017-04-06T14:10:06.396Z,13.49
2017-04-06T14:11:28.581Z,13.33
2017-04-06T14:12:50.431Z,13.71
2017-04-06T14:14:12.600Z,13.81
2017-04-06T14:15:34.099Z,14.18
2017-04-06T14:16:55.605Z,14.45
2017-04-06T14:18:17.534Z,14.61
2017-04-06T14:19:39.373Z,14.24
2017-04-06T14:21:01.847Z,13.51
2017-04-06T14:22:24.327Z,13.54
2017-04-06T14:23:46.173Z,13.28
2017-04-06T14:25:08.370Z,13.29
2017-04-06T14:26:30.816Z,13.22
2017-04-06T14:27:53.052Z,13.04
2017-04-06T14:29:15.006Z,12.87
2017-04-06T14:30:36.523Z,12.86
2017-04-06T14:31:59.366Z,12.68
2017-04-06T14:33:21.078Z,12.87
2017-04-06T14:34:43.251Z,12.87
2017-04-06T14:36:05.774Z,12.95
2017-04-06T14:37:28.342Z,12.86
2017-04-06T14:38:50.157Z,12.41
2017-04-06T14:40:12.634Z,12.41
2017-04-06T14:41:34.822Z,12.68
2017-04-06T14:42:57.612Z,12.54
2017-04-06T14:44:19.769Z,12.71
2017-04-06T14:45:42.224Z,12.97
2017-04-06T14:47:04.453Z,12.95
2017-04-06T14:48:26.623Z,13.07
2017-04-06T14:49:48.451Z,12.79
2017-04-06T14:51:10.585Z,12.37
2017-04-06T14:52:33.144Z,11.98
2017-04-06T14:53:55.394Z,11.85
2017-04-06T14:55:17.592Z,11.86
2017-04-06T14:56:39.408Z,11.91
2017-04-06T14:58:01.895Z,12.24
2017-04-06T14:59:23.715Z,12.52
2017-04-06T15:00:46.212Z,12.52
2017-04-06T15:02:07.757Z,12.28
2017-04-06T15:03:29.918Z,12.47
2017-04-06T15:04:52.385Z,12.5
2017-04-06T15:06:15.014Z,12.41
2017-04-06T15:07:37.166Z,12.32
2017-04-06T15:08:59.629Z,12.39
2017-04-06T15:10:22.025Z,12.52
2017-04-06T15:11:43.906Z,12.47
2017-04-06T15:13:06.393Z,12.53
2017-04-06T15:14:27.588Z,12.54
2017-04-06T15:15:50.377Z,12.49
2017-04-06T15:17:12.335Z,12.5
2017-04-06T15:18:33.561Z,12.52
2017-04-06T15:19:55.860Z,12.49
2017-04-06T15:21:18.633Z,12.52
2017-04-06T15:22:39.830Z,12.45
2017-04-06T15:24:01.669Z,12.75
2017-04-06T15:25:24.145Z,12.78
2017-04-06T15:26:46.295Z,12.71
2017-04-06T15:28:08.163Z,12.45
2017-04-06T15:29:30.045Z,12.39
2017-04-06T15:30:52.559Z,12.38
2017-04-06T15:32:15.001Z,12.46
2017-04-06T15:33:37.217Z,12.62
2017-04-06T15:34:59.433Z,12.87
2017-04-06T15:36:21.976Z,13.04
2017-04-06T15:37:44.746Z,13.11
2017-04-06T15:39:07.325Z,13.17
2017-04-06T15:40:28.545Z,12.97
2017-04-06T15:41:50.736Z,12.92
2017-04-06T15:43:13.554Z,12.68
2017-04-06T15:44:35.812Z,12.59
2017-04-06T15:45:58.046Z,12.67
2017-04-06T15:47:20.543Z,12.38
2017-04-06T15:48:42.856Z,12.54
2017-04-06T15:50:04.544Z,12.7
2017-04-06T15:51:26.735Z,12.72
2017-04-06T15:52:49.477Z,12.74
2017-04-06T15:54:12.408Z,12.6
2017-04-06T15:55:34.938Z,12.19
2017-04-06T15:56:57.137Z,11.88
2017-04-06T15:58:19.329Z,11.54
2017-04-06T15:59:41.756Z,11.4
2017-04-06T16:01:04.101Z,11.32
2017-04-06T16:02:25.662Z,11.29
2017-04-06T16:03:48.241Z,11.39
2017-04-06T16:05:10.418Z,11.35
2017-04-06T16:06:32.526Z,11.44
2017-04-06T16:07:54.686Z,11.28
2017-04-06T16:09:17.226Z,11.07
2017-04-06T16:10:39.684Z,11
2017-04-06T16:12:02.178Z,11.04
2017-04-06T16:13:24.356Z,11.14
2017-04-06T16:14:47.408Z,11.32
2017-04-06T16:16:10.417Z,11.33
2017-04-06T16:17:32.945Z,11.37
2017-04-06T16:18:55.155Z,11.42
2017-04-06T16:20:17.316Z,11.35
2017-04-06T16:21:40.118Z,11.47
2017-04-06T16:23:02.347Z,11.36
2017-04-06T16:24:24.526Z,11.35
2017-04-06T16:25:46.714Z,11.36
2017-04-06T16:27:08.822Z,11.21
2017-04-06T16:28:30.815Z,11.24
2017-04-06T16:29:53.316Z,11.04
2017-04-06T16:31:15.821Z,10.88
2017-04-06T16:32:38.635Z,11.1
2017-04-06T16:34:00.936Z,10.94
2017-04-06T16:35:23.584Z,11.03
2017-04-06T16:36:45.437Z,10.99
2017-04-06T16:38:08.039Z,11.06
2017-04-06T16:39:29.881Z,10.94
2017-04-06T16:40:52.054Z,11.09
2017-04-06T16:42:14.141Z,11.19
2017-04-06T16:43:36.980Z,11.14
2017-04-06T16:44:59.462Z,11.09
2017-04-06T16:46:21.677Z,11.09
2017-04-06T16:47:44.214Z,11.14
2017-04-06T16:49:07.096Z,11.1
2017-04-06T16:50:29.410Z,11.17
2017-04-06T16:52:23.362Z,10.97
2017-04-06T16:53:45.566Z,10.96
2017-04-06T16:55:12.894Z,10.85
2017-04-06T16:56:35.114Z,10.63
2017-04-06T16:57:57.415Z,10.61
2017-04-06T16:59:20.445Z,10.53
2017-04-06T17:00:42.970Z,10.55
2017-04-06T17:02:04.834Z,10.51
2017-04-06T17:03:27.351Z,10.55
2017-04-06T17:04:50.110Z,10.52
2017-04-06T17:06:12.397Z,10.52
2017-04-06T17:07:34.534Z,10.47
2017-04-06T17:08:57.696Z,10.44
2017-04-06T17:10:20.315Z,10.4
2017-04-06T17:11:43.293Z,10.32
2017-04-06T17:13:06.642Z,10.15
2017-04-06T17:14:31.306Z,10.15
2017-04-06T17:15:54.173Z,10.08
2017-04-06T17:17:16.668Z,9.97
2017-04-06T17:18:39.213Z,9.96
2017-04-06T17:20:01.428Z,9.93
2017-04-06T17:21:25.874Z,9.93
2017-04-06T17:22:48.967Z,10.05
2017-04-06T17:24:11.344Z,9.96
2017-04-06T17:25:34.157Z,9.94
2017-04-06T17:26:58.030Z,9.79
2017-04-06T17:28:21.328Z,9.81
2017-04-06T17:29:43.696Z,9.89
2017-04-06T17:31:06.324Z,9.86
2017-04-06T17:32:30.396Z,9.87
2017-04-06T17:33:53.973Z,9.89
2017-04-06T17:35:16.854Z,9.89
2017-04-06T17:36:38.999Z,9.72
2017-04-06T17:38:01.713Z,9.64
2017-04-06T17:39:24.190Z,9.56
2017-04-06T17:40:46.653Z,9.57
2017-04-06T17:42:08.498Z,9.48
2017-04-06T17:43:30.908Z,9.4
2017-04-06T17:44:52.741Z,9.42
2017-04-06T17:46:14.914Z,9.33
2017-04-06T17:47:37.135Z,9.31
2017-04-06T17:48:59.714Z,9.29
2017-04-06T17:50:22.195Z,9.18
2017-04-06T17:51:43.714Z,9.21
2017-04-06T17:53:06.204Z,9.17
2017-04-06T17:54:28.313Z,9.14
2017-04-06T17:55:49.918Z,9.04
2017-04-06T17:57:12.086Z,9.05
2017-04-06T17:58:34.347Z,8.95
2017-04-06T17:59:56.787Z,8.98
2017-04-06T18:01:18.716Z,8.84
2017-04-06T18:02:40.917Z,8.87